CYZT

Port Hardy Airport

Port Hardy, , Canada
TAF CYZT 181838Z 1819/1907 05005KT P6SM BKN030 TEMPO 1819/1902 FEW008 BKN020 BECMG 1820/1822 34012KT FM190200 34012KT P6SM SCT025 TEMPO 1902/1907 BKN020 BECMG 1904/1906 29005KT RMK NXT FCST BY 190100Z
Issued Valid From Valid To
Jul-18 @ 18:38 UTC
(4 hours ago)
Jul-18 @ 19:00 UTC
(3 hours ago)
Jul-19 @ 07:00 UTC
(in 9 hours)
Expired Click to View Jul-18 @ 19:00 to Jul-18 @ 20:00
TAF CYZT 181838Z 1819/1907 05005KT P6SM BKN030
Wind Visibility Clouds
50° at 5 knots Greater than 6 miles
  • Broken at 3,000' AGL
Temporary Jul-18 @ 19:00 to Jul-19 @ 02:00
TEMPO 1819/1902 FEW008 BKN020
Clouds
  • Few at 800' AGL
  • Broken at 2,000' AGL
Becoming Jul-18 @ 20:00 to Jul-19 @ 02:00
BECMG 1820/1822 34012KT
Wind Visibility Clouds
340° at 12 knots Greater than 6 miles
  • Broken at 3,000' AGL
From Jul-19 @ 02:00 to Jul-19 @ 04:00
FM190200 34012KT P6SM SCT025
Wind Visibility Clouds
340° at 12 knots Greater than 6 miles
  • Scattered at 2,500' AGL
Temporary Jul-19 @ 02:00 to Jul-19 @ 07:00
TEMPO 1902/1907 BKN020
Clouds
  • Broken at 2,000' AGL
Becoming Jul-19 @ 04:00 to Jul-19 @ 07:00
BECMG 1904/1906 29005KT RMK NXT FCST BY 190100Z
Wind Visibility Clouds
290° at 5 knots Greater than 6 miles
  • Scattered at 2,500' AGL
TAF CYZT 181838Z 1819/1907 05005KT P6SM BKN030 TEMPO 1819/1902 FEW008 BKN020 BECMG 1820/1822 34012KT FM190200 34012KT P6SM SCT025 TEMPO 1902/1907 BKN020 BECMG 1904/1906 29005KT RMK NXT FCST BY 190100Z
Issued Jul-18 @ 18:38 UTC
(4 hours ago)
Valid From Jul-18 @ 19:00 UTC
(3 hours ago)
Valid To Jul-19 @ 07:00 UTC
(in 9 hours)
Jul-18 @ 19:00 - Jul-18 @ 20:00
Wind Visibility
50° at 5 knots Greater than 6 miles
Clouds
  • Broken at 3,000' AGL
Temporary Jul-18 @ 19:00 - Jul-19 @ 02:00
Clouds
  • Few at 800' AGL
  • Broken at 2,000' AGL
Becoming Jul-18 @ 20:00 - Jul-19 @ 02:00
Wind Visibility
340° at 12 knots Greater than 6 miles
Clouds
  • Broken at 3,000' AGL
From Jul-19 @ 02:00 - Jul-19 @ 04:00
Wind Visibility
340° at 12 knots Greater than 6 miles
Clouds
  • Scattered at 2,500' AGL
Temporary Jul-19 @ 02:00 - Jul-19 @ 07:00
Clouds
  • Broken at 2,000' AGL
Becoming Jul-19 @ 04:00 - Jul-19 @ 07:00
Wind Visibility
290° at 5 knots Greater than 6 miles
Clouds
  • Scattered at 2,500' AGL